sensor_id;sensor_type;location;lat;lon;timestamp;P1;P2;P0
76045;PMS7003;64741;41.730;44.788;2023-09-19T00:01:35;2.2;1.6;0.6
76045;PMS7003;64741;41.730;44.788;2023-09-19T00:05:49;1.2;0.8;0.8
76045;PMS7003;64741;41.730;44.788;2023-09-19T00:11:23;1.2;0.8;0.6
76045;PMS7003;64741;41.730;44.788;2023-09-19T00:16:35;1.8;1.2;0.8
76045;PMS7003;64741;41.730;44.788;2023-09-19T00:21:25;1.2;0.8;0.4
76045;PMS7003;64741;41.730;44.788;2023-09-19T00:26:33;0.2;0;0
76045;PMS7003;64741;41.730;44.788;2023-09-19T00:31:09;1;0.6;0.4
76045;PMS7003;64741;41.730;44.788;2023-09-19T00:36:23;1.4;0.8;0.4
76045;PMS7003;64741;41.730;44.788;2023-09-19T00:40:43;0.8;0;0
76045;PMS7003;64741;41.730;44.788;2023-09-19T00:46:27;0.8;0.6;0.4
76045;PMS7003;64741;41.730;44.788;2023-09-19T00:51:35;0.8;0.6;0.4
76045;PMS7003;64741;41.730;44.788;2023-09-19T00:56:27;1.8;0.8;0.4
76045;PMS7003;64741;41.730;44.788;2023-09-19T01:01:21;0.4;0.2;0
76045;PMS7003;64741;41.730;44.788;2023-09-19T01:06:33;0.4;0.4;0.2
76045;PMS7003;64741;41.730;44.788;2023-09-19T01:11:26;0.4;0.4;0.2
76045;PMS7003;64741;41.730;44.788;2023-09-19T01:16:35;0.6;0.6;0.2
76045;PMS7003;64741;41.730;44.788;2023-09-19T01:21:31;0.6;0.2;0.2
76045;PMS7003;64741;41.730;44.788;2023-09-19T01:26:26;0.6;0.2;0
76045;PMS7003;64741;41.730;44.788;2023-09-19T01:31:33;0;0;0
76045;PMS7003;64741;41.730;44.788;2023-09-19T01:36:26;0.2;0;0
76045;PMS7003;64741;41.730;44.788;2023-09-19T01:42:08;0.2;0.2;0.2
76045;PMS7003;64741;41.730;44.788;2023-09-19T01:46:30;0.2;0.2;0
76045;PMS7003;64741;41.730;44.788;2023-09-19T01:51:26;0.2;0;0
76045;PMS7003;64741;41.730;44.788;2023-09-19T01:56:36;0.2;0.2;0
76045;PMS7003;64741;41.730;44.788;2023-09-19T02:01:27;0;0;0
76045;PMS7003;64741;41.730;44.788;2023-09-19T02:06:35;0.4;0;0
76045;PMS7003;64741;41.730;44.788;2023-09-19T02:11:23;0;0;0
76045;PMS7003;64741;41.730;44.788;2023-09-19T02:16:21;0.2;0.2;0
76045;PMS7003;64741;41.730;44.788;2023-09-19T02:21:17;0;0;0
76045;PMS7003;64741;41.730;44.788;2023-09-19T02:26:25;0;0;0
76045;PMS7003;64741;41.730;44.788;2023-09-19T02:31:33;0;0;0
76045;PMS7003;64741;41.730;44.788;2023-09-19T02:36:29;0;0;0
76045;PMS7003;64741;41.730;44.788;2023-09-19T02:41:07;0;0;0
76045;PMS7003;64741;41.730;44.788;2023-09-19T02:46:33;0;0;0
76045;PMS7003;64741;41.730;44.788;2023-09-19T02:51:25;0.4;0.2;0
76045;PMS7003;64741;41.730;44.788;2023-09-19T02:56:33;0.2;0;0
76045;PMS7003;64741;41.730;44.788;2023-09-19T03:01:27;0.8;0.6;0.2
76045;PMS7003;64741;41.730;44.788;2023-09-19T03:06:19;0;0;0
76045;PMS7003;64741;41.730;44.788;2023-09-19T03:11:21;0;0;0
76045;PMS7003;64741;41.730;44.788;2023-09-19T03:16:25;0.8;0.2;0
76045;PMS7003;64741;41.730;44.788;2023-09-19T03:21:25;0;0;0
76045;PMS7003;64741;41.730;44.788;2023-09-19T03:26:13;0.2;0.2;0.2
76045;PMS7003;64741;41.730;44.788;2023-09-19T03:31:19;0.4;0.2;0
76045;PMS7003;64741;41.730;44.788;2023-09-19T03:36:33;0.2;0.2;0
76045;PMS7003;64741;41.730;44.788;2023-09-19T03:41:27;0.2;0;0
76045;PMS7003;64741;41.730;44.788;2023-09-19T03:46:21;0;0;0
76045;PMS7003;64741;41.730;44.788;2023-09-19T03:51:25;0.2;0.2;0.2
76045;PMS7003;64741;41.730;44.788;2023-09-19T03:56:21;0.2;0.2;0.2
76045;PMS7003;64741;41.730;44.788;2023-09-19T04:01:19;0.4;0.4;0
76045;PMS7003;64741;41.730;44.788;2023-09-19T04:06:23;0.3;0.3;0
76045;PMS7003;64741;41.730;44.788;2023-09-19T04:11:25;1;0.4;0.4
76045;PMS7003;64741;41.730;44.788;2023-09-19T04:16:25;0.2;0.2;0
76045;PMS7003;64741;41.730;44.788;2023-09-19T04:21:19;0.8;0.6;0.4
76045;PMS7003;64741;41.730;44.788;2023-09-19T04:26:31;0.6;0;0
76045;PMS7003;64741;41.730;44.788;2023-09-19T04:31:27;0.8;0.2;0.2
76045;PMS7003;64741;41.730;44.788;2023-09-19T04:36:21;0.4;0.2;0
76045;PMS7003;64741;41.730;44.788;2023-09-19T04:41:33;0.6;0.6;0.2
76045;PMS7003;64741;41.730;44.788;2023-09-19T04:46:21;0.2;0.2;0.2
76045;PMS7003;64741;41.730;44.788;2023-09-19T04:51:21;0.4;0.4;0
76045;PMS7003;64741;41.730;44.788;2023-09-19T04:56:05;0.4;0.4;0.2
76045;PMS7003;64741;41.730;44.788;2023-09-19T05:01:25;0.4;0.4;0.2
76045;PMS7003;64741;41.730;44.788;2023-09-19T05:06:29;0.6;0.4;0.2
76045;PMS7003;64741;41.730;44.788;2023-09-19T05:11:27;0.6;0.2;0.2
76045;PMS7003;64741;41.730;44.788;2023-09-19T05:16:33;0.8;0.2;0.2
76045;PMS7003;64741;41.730;44.788;2023-09-19T05:21:27;0.2;0.2;0
76045;PMS7003;64741;41.730;44.788;2023-09-19T05:26:21;0.8;0.6;0.2
76045;PMS7003;64741;41.730;44.788;2023-09-19T05:31:31;1;0.4;0.4
76045;PMS7003;64741;41.730;44.788;2023-09-19T05:36:19;0.8;0.8;0.8
76045;PMS7003;64741;41.730;44.788;2023-09-19T05:41:17;0.8;0.4;0.4
76045;PMS7003;64741;41.730;44.788;2023-09-19T05:46:19;0.8;0.2;0
76045;PMS7003;64741;41.730;44.788;2023-09-19T05:51:21;0;0;0
76045;PMS7003;64741;41.730;44.788;2023-09-19T05:56:25;0.8;0.6;0
76045;PMS7003;64741;41.730;44.788;2023-09-19T06:01:21;0.8;0.6;0.4
76045;PMS7003;64741;41.730;44.788;2023-09-19T06:06:33;0.8;0.8;0.6
76045;PMS7003;64741;41.730;44.788;2023-09-19T06:11:29;0.8;0.6;0
76045;PMS7003;64741;41.730;44.788;2023-09-19T06:16:23;0.4;0.2;0.2
76045;PMS7003;64741;41.730;44.788;2023-09-19T06:21:35;0.4;0.4;0.2
76045;PMS7003;64741;41.730;44.788;2023-09-19T06:26:23;0.6;0.2;0
76045;PMS7003;64741;41.730;44.788;2023-09-19T06:31:21;1;0.4;0.2
76045;PMS7003;64741;41.730;44.788;2023-09-19T06:36:23;0.6;0.4;0
76045;PMS7003;64741;41.730;44.788;2023-09-19T06:41:27;0.2;0;0
76045;PMS7003;64741;41.730;44.788;2023-09-19T06:46:29;0.6;0.6;0.2
76045;PMS7003;64741;41.730;44.788;2023-09-19T06:51:25;0.4;0.4;0.2
76045;PMS7003;64741;41.730;44.788;2023-09-19T06:56:35;0.8;0.8;0.4
76045;PMS7003;64741;41.730;44.788;2023-09-19T07:01:27;0.6;0.4;0.2
76045;PMS7003;64741;41.730;44.788;2023-09-19T07:06:15;1;0.4;0.2
76045;PMS7003;64741;41.730;44.788;2023-09-19T07:11:33;0.4;0.4;0
76045;PMS7003;64741;41.730;44.788;2023-09-19T07:16:19;0.6;0.6;0.4
76045;PMS7003;64741;41.730;44.788;2023-09-19T07:21:21;0.4;0.4;0.4
76045;PMS7003;64741;41.730;44.788;2023-09-19T07:26:23;2;1.2;0.6
76045;PMS7003;64741;41.730;44.788;2023-09-19T07:31:21;1.2;1;0.8
76045;PMS7003;64741;41.730;44.788;2023-09-19T07:36:25;1.4;1.2;0.8
76045;PMS7003;64741;41.730;44.788;2023-09-19T07:41:25;0.2;0.2;0.2
76045;PMS7003;64741;41.730;44.788;2023-09-19T07:45:57;1.6;1;0.8
76045;PMS7003;64741;41.730;44.788;2023-09-19T07:51:13;0.8;0.6;0.2
76045;PMS7003;64741;41.730;44.788;2023-09-19T07:56:35;0.4;0.4;0.2
76045;PMS7003;64741;41.730;44.788;2023-09-19T08:01:29;1.2;1;0.8
76045;PMS7003;64741;41.730;44.788;2023-09-19T08:06:21;1.8;1.6;1.2
76045;PMS7003;64741;41.730;44.788;2023-09-19T08:11:33;0.8;0.6;0.4
76045;PMS7003;64741;41.730;44.788;2023-09-19T08:16:23;3;2.4;1.8
76045;PMS7003;64741;41.730;44.788;2023-09-19T08:21:23;4;2.8;2.2
76045;PMS7003;64741;41.730;44.788;2023-09-19T08:26:27;6.2;5.8;4
76045;PMS7003;64741;41.730;44.788;2023-09-19T08:31:27;5.2;4.8;3.6
76045;PMS7003;64741;41.730;44.788;2023-09-19T08:36:29;5.2;4.8;3.4
76045;PMS7003;64741;41.730;44.788;2023-09-19T08:41:27;4.2;3.6;2.8
76045;PMS7003;64741;41.730;44.788;2023-09-19T08:46:33;3.8;2.8;2.2
76045;PMS7003;64741;41.730;44.788;2023-09-19T08:51:30;2.8;2.8;2.2
76045;PMS7003;64741;41.730;44.788;2023-09-19T08:56:08;1.4;1.2;0.6
76045;PMS7003;64741;41.730;44.788;2023-09-19T09:01:33;1.2;1.2;1
76045;PMS7003;64741;41.730;44.788;2023-09-19T09:06:23;1;1;0.6
76045;PMS7003;64741;41.730;44.788;2023-09-19T09:11:23;1;0.5;0.5
76045;PMS7003;64741;41.730;44.788;2023-09-19T09:15:55;1.6;1.4;0.4
76045;PMS7003;64741;41.730;44.788;2023-09-19T09:21:27;1.2;1;0.6
76045;PMS7003;64741;41.730;44.788;2023-09-19T09:26:44;0.6;0.6;0.6
76045;PMS7003;64741;41.730;44.788;2023-09-19T09:31:21;3.8;3;2.4
76045;PMS7003;64741;41.730;44.788;2023-09-19T09:36:35;52.8;42.8;29.4
76045;PMS7003;64741;41.730;44.788;2023-09-19T09:41:27;71.2;55.2;37.2
76045;PMS7003;64741;41.730;44.788;2023-09-19T09:46:23;66.2;51.2;34
76045;PMS7003;64741;41.730;44.788;2023-09-19T09:51:15;67.8;51;34.6
76045;PMS7003;64741;41.730;44.788;2023-09-19T09:56:11;58.8;45.6;30
76045;PMS7003;64741;41.730;44.788;2023-09-19T10:00:55;46.8;38;25.6
76045;PMS7003;64741;41.730;44.788;2023-09-19T10:06:39;49.2;39.6;26.4
76045;PMS7003;64741;41.730;44.788;2023-09-19T10:11:27;44;36;24.8
76045;PMS7003;64741;41.730;44.788;2023-09-19T10:16:29;44.6;36.4;24.4
76045;PMS7003;64741;41.730;44.788;2023-09-19T10:21:27;32.2;28;19.8
76045;PMS7003;64741;41.730;44.788;2023-09-19T10:26:36;24;21;15.8
76045;PMS7003;64741;41.730;44.788;2023-09-19T10:31:29;18.2;16.4;12
76045;PMS7003;64741;41.730;44.788;2023-09-19T10:36:23;16.4;15.2;11
76045;PMS7003;64741;41.730;44.788;2023-09-19T10:41:35;12.2;10;7.6
76045;PMS7003;64741;41.730;44.788;2023-09-19T10:46:23;12;10.4;7.8
76045;PMS7003;64741;41.730;44.788;2023-09-19T10:51:23;9;8.4;6.2
76045;PMS7003;64741;41.730;44.788;2023-09-19T10:56:29;11;8.2;5.8
76045;PMS7003;64741;41.730;44.788;2023-09-19T11:01:40;8.4;6.2;4.8
76045;PMS7003;64741;41.730;44.788;2023-09-19T11:06:29;8.4;6.6;4.8
76045;PMS7003;64741;41.730;44.788;2023-09-19T11:11:43;6.2;5.6;4.2
76045;PMS7003;64741;41.730;44.788;2023-09-19T11:16:35;6;5.4;4
76045;PMS7003;64741;41.730;44.788;2023-09-19T11:22:00;6.4;4.8;3.6
76045;PMS7003;64741;41.730;44.788;2023-09-19T11:26:32;4.8;4.4;3.2
76045;PMS7003;64741;41.730;44.788;2023-09-19T11:31:41;5.4;4.8;3.2
76045;PMS7003;64741;41.730;44.788;2023-09-19T11:36:35;5.4;4.6;3.4
76045;PMS7003;64741;41.730;44.788;2023-09-19T11:41:37;4.2;3.4;3.2
76045;PMS7003;64741;41.730;44.788;2023-09-19T11:46:29;4.8;3.8;2.8
76045;PMS7003;64741;41.730;44.788;2023-09-19T11:51:27;3.2;3.2;1.8
76045;PMS7003;64741;41.730;44.788;2023-09-19T11:56:38;3.2;2.8;2.2
76045;PMS7003;64741;41.730;44.788;2023-09-19T12:01:29;2.2;2.2;1.6
76045;PMS7003;64741;41.730;44.788;2023-09-19T12:06:23;2.4;2.4;2
76045;PMS7003;64741;41.730;44.788;2023-09-19T12:11:30;4;2.4;1.6
76045;PMS7003;64741;41.730;44.788;2023-09-19T12:16:25;3.4;2.4;2
76045;PMS7003;64741;41.730;44.788;2023-09-19T12:21:35;2.2;1.6;1.4
76045;PMS7003;64741;41.730;44.788;2023-09-19T12:26:29;1.8;1.6;1.4
76045;PMS7003;64741;41.730;44.788;2023-09-19T12:31:21;3.4;2.4;1.6
76045;PMS7003;64741;41.730;44.788;2023-09-19T12:36:29;3.2;2;1.4
76045;PMS7003;64741;41.730;44.788;2023-09-19T12:41:27;2.4;2;1.6
76045;PMS7003;64741;41.730;44.788;2023-09-19T12:46:35;2.2;1.4;1.4
76045;PMS7003;64741;41.730;44.788;2023-09-19T12:51:21;2.4;1.8;1.4
76045;PMS7003;64741;41.730;44.788;2023-09-19T12:56:23;4.6;3.6;2.8
76045;PMS7003;64741;41.730;44.788;2023-09-19T13:01:29;4.8;4;3.4
76045;PMS7003;64741;41.730;44.788;2023-09-19T13:06:35;3;3;2.6
76045;PMS7003;64741;41.730;44.788;2023-09-19T13:11:35;5;3.4;2.4
76045;PMS7003;64741;41.730;44.788;2023-09-19T13:16:30;3.8;3.2;2.4
76045;PMS7003;64741;41.730;44.788;2023-09-19T13:21:27;3.8;3.2;2.6
76045;PMS7003;64741;41.730;44.788;2023-09-19T13:26:29;3.8;3.6;2.8
76045;PMS7003;64741;41.730;44.788;2023-09-19T13:31:27;5.8;5;3.6
76045;PMS7003;64741;41.730;44.788;2023-09-19T13:36:19;8.4;6.8;5
76045;PMS7003;64741;41.730;44.788;2023-09-19T13:41:29;9;6;4.4
76045;PMS7003;64741;41.730;44.788;2023-09-19T13:46:23;10.4;9.2;6.8
76045;PMS7003;64741;41.730;44.788;2023-09-19T13:51:11;16.4;15.4;12.2
76045;PMS7003;64741;41.730;44.788;2023-09-19T13:56:27;36.2;30.6;22
76045;PMS7003;64741;41.730;44.788;2023-09-19T14:01:36;50;40.4;28.6
76045;PMS7003;64741;41.730;44.788;2023-09-19T14:06:29;65;52.4;37.6
76045;PMS7003;64741;41.730;44.788;2023-09-19T14:11:23;81.6;72;51.8
76045;PMS7003;64741;41.730;44.788;2023-09-19T14:16:29;79.8;71.8;51.4
76045;PMS7003;64741;41.730;44.788;2023-09-19T14:21:27;77.2;66.4;46
76045;PMS7003;64741;41.730;44.788;2023-09-19T14:26:35;70.3;56;38.8
76045;PMS7003;64741;41.730;44.788;2023-09-19T14:31:19;68.6;52.2;36.4
76045;PMS7003;64741;41.730;44.788;2023-09-19T14:36:17;61.2;47.6;32.2
76045;PMS7003;64741;41.730;44.788;2023-09-19T14:41:29;51.8;41;28.6
76045;PMS7003;64741;41.730;44.788;2023-09-19T14:46:27;43.4;34.6;24.4
76045;PMS7003;64741;41.730;44.788;2023-09-19T14:51:33;39.4;32.4;21.6
76045;PMS7003;64741;41.730;44.788;2023-09-19T14:56:29;32.2;28.6;20.4
76045;PMS7003;64741;41.730;44.788;2023-09-19T15:01:23;47.6;37.8;25.6
76045;PMS7003;64741;41.730;44.788;2023-09-19T15:06:27;67.2;51.2;34.2
76045;PMS7003;64741;41.730;44.788;2023-09-19T15:11:27;56;45;30
76045;PMS7003;64741;41.730;44.788;2023-09-19T15:16:35;52.8;42;28
76045;PMS7003;64741;41.730;44.788;2023-09-19T15:21:27;49.2;39.2;26.2
76045;PMS7003;64741;41.730;44.788;2023-09-19T15:26:23;44.8;35.2;23.8
76045;PMS7003;64741;41.730;44.788;2023-09-19T15:31:31;37.2;29.8;20.8
76045;PMS7003;64741;41.730;44.788;2023-09-19T15:36:27;33.8;28.4;20.2
76045;PMS7003;64741;41.730;44.788;2023-09-19T15:41:36;31.8;28.8;19.8
76045;PMS7003;64741;41.730;44.788;2023-09-19T15:46:28;33.4;29;20.6
76045;PMS7003;64741;41.730;44.788;2023-09-19T15:51:19;26.8;23.2;17.8
76045;PMS7003;64741;41.730;44.788;2023-09-19T15:56:35;23.2;20;14.6
76045;PMS7003;64741;41.730;44.788;2023-09-19T16:01:27;17.8;16;11.2
76045;PMS7003;64741;41.730;44.788;2023-09-19T16:06:35;14.2;12;9.2
76045;PMS7003;64741;41.730;44.788;2023-09-19T16:11:31;13.2;11.4;8.6
76045;PMS7003;64741;41.730;44.788;2023-09-19T16:16:24;13.8;11.4;9
76045;PMS7003;64741;41.730;44.788;2023-09-19T16:21:36;9.6;8.6;6.8
76045;PMS7003;64741;41.730;44.788;2023-09-19T16:26:27;8;6.8;5.6
76045;PMS7003;64741;41.730;44.788;2023-09-19T16:31:33;7;6.2;4.4
76045;PMS7003;64741;41.730;44.788;2023-09-19T16:36:29;5.4;5;3.8
76045;PMS7003;64741;41.730;44.788;2023-09-19T16:41:23;6.6;5.6;3.8
76045;PMS7003;64741;41.730;44.788;2023-09-19T16:46:34;4.8;4.4;3.4
76045;PMS7003;64741;41.730;44.788;2023-09-19T16:51:27;5;4.4;3.6
76045;PMS7003;64741;41.730;44.788;2023-09-19T16:56:35;5;4.2;3.2
76045;PMS7003;64741;41.730;44.788;2023-09-19T17:01:29;5.6;4.8;3.6
76045;PMS7003;64741;41.730;44.788;2023-09-19T17:06:23;4.4;3.8;3
76045;PMS7003;64741;41.730;44.788;2023-09-19T17:11:33;4.6;4.6;3.6
76045;PMS7003;64741;41.730;44.788;2023-09-19T17:16:27;4.4;4;2.6
76045;PMS7003;64741;41.730;44.788;2023-09-19T17:21:35;5.2;3.8;3
76045;PMS7003;64741;41.730;44.788;2023-09-19T17:26:29;3.4;3.2;2.6
76045;PMS7003;64741;41.730;44.788;2023-09-19T17:31:25;3.8;3.6;3
76045;PMS7003;64741;41.730;44.788;2023-09-19T17:36:35;4.6;3.8;3
76045;PMS7003;64741;41.730;44.788;2023-09-19T17:41:27;5.2;4.6;3.4
76045;PMS7003;64741;41.730;44.788;2023-09-19T17:46:35;3.4;3.4;2.8
76045;PMS7003;64741;41.730;44.788;2023-09-19T17:51:29;4.2;3.4;2.4
76045;PMS7003;64741;41.730;44.788;2023-09-19T17:56:23;4.6;4;3
76045;PMS7003;64741;41.730;44.788;2023-09-19T18:01:35;3.4;2.8;2.2
76045;PMS7003;64741;41.730;44.788;2023-09-19T18:06:07;4.2;3.6;2.6
76045;PMS7003;64741;41.730;44.788;2023-09-19T18:11:33;4.8;3.2;2
76045;PMS7003;64741;41.730;44.788;2023-09-19T18:16:31;3.6;3.4;2.2
76045;PMS7003;64741;41.730;44.788;2023-09-19T18:21:25;3.8;3.4;2.4
76045;PMS7003;64741;41.730;44.788;2023-09-19T18:26:35;4.4;3.4;2.4
76045;PMS7003;64741;41.730;44.788;2023-09-19T18:31:27;4.2;3.8;2.8
76045;PMS7003;64741;41.730;44.788;2023-09-19T18:36:35;3.8;3.8;2.8
76045;PMS7003;64741;41.730;44.788;2023-09-19T18:41:31;3.8;3.2;2.2
76045;PMS7003;64741;41.730;44.788;2023-09-19T18:46:25;5;3.8;2.8
76045;PMS7003;64741;41.730;44.788;2023-09-19T18:51:35;3.6;3.6;3
76045;PMS7003;64741;41.730;44.788;2023-09-19T18:56:29;5.8;4;2.8
76045;PMS7003;64741;41.730;44.788;2023-09-19T19:01:35;5.2;4.4;3.2
76045;PMS7003;64741;41.730;44.788;2023-09-19T19:06:31;5.6;5;3.6
76045;PMS7003;64741;41.730;44.788;2023-09-19T19:10:57;5.6;4.6;3.4
76045;PMS7003;64741;41.730;44.788;2023-09-19T19:16:35;6.6;6;4.4
76045;PMS7003;64741;41.730;44.788;2023-09-19T19:21:35;6.2;5.2;3.8
76045;PMS7003;64741;41.730;44.788;2023-09-19T19:26:31;6.8;5.6;4.4
76045;PMS7003;64741;41.730;44.788;2023-09-19T19:31:25;7;6.2;4.4
76045;PMS7003;64741;41.730;44.788;2023-09-19T19:36:31;6.8;5.8;3.8
76045;PMS7003;64741;41.730;44.788;2023-09-19T19:41:27;5.4;4.8;3.8
76045;PMS7003;64741;41.730;44.788;2023-09-19T19:46:35;5.2;4.8;3.8
76045;PMS7003;64741;41.730;44.788;2023-09-19T19:51:31;5.8;5.4;3.8
76045;PMS7003;64741;41.730;44.788;2023-09-19T19:56:19;7;5.6;4
76045;PMS7003;64741;41.730;44.788;2023-09-19T20:01:31;6.6;5.8;4.4
76045;PMS7003;64741;41.730;44.788;2023-09-19T20:06:29;6;5.2;4
76045;PMS7003;64741;41.730;44.788;2023-09-19T20:11:37;5.4;4.4;3.4
76045;PMS7003;64741;41.730;44.788;2023-09-19T20:16:32;8;5.6;4
76045;PMS7003;64741;41.730;44.788;2023-09-19T20:21:25;6.8;4.8;3.8
76045;PMS7003;64741;41.730;44.788;2023-09-19T20:26:29;5.6;4.8;3.6
76045;PMS7003;64741;41.730;44.788;2023-09-19T20:31:30;5.6;4.6;3.8
76045;PMS7003;64741;41.730;44.788;2023-09-19T20:36:33;6.8;5;4
76045;PMS7003;64741;41.730;44.788;2023-09-19T20:41:29;6.2;4.8;3.8
76045;PMS7003;64741;41.730;44.788;2023-09-19T20:46:23;5.8;4.8;3.8
76045;PMS7003;64741;41.730;44.788;2023-09-19T20:51:31;5.8;5;3.8
76045;PMS7003;64741;41.730;44.788;2023-09-19T20:56:27;6;5;3.8
76045;PMS7003;64741;41.730;44.788;2023-09-19T21:01:35;5.8;4.8;3.8
76045;PMS7003;64741;41.730;44.788;2023-09-19T21:06:31;6;5.6;3.8
76045;PMS7003;64741;41.730;44.788;2023-09-19T21:11:25;5.8;5.4;4.4
76045;PMS7003;64741;41.730;44.788;2023-09-19T21:16:31;4.6;4.4;3.4
76045;PMS7003;64741;41.730;44.788;2023-09-19T21:21:27;5.4;5;3.4
76045;PMS7003;64741;41.730;44.788;2023-09-19T21:26:35;6;4.2;3.2
76045;PMS7003;64741;41.730;44.788;2023-09-19T21:31:31;6.2;5.4;4
76045;PMS7003;64741;41.730;44.788;2023-09-19T21:36:25;7;5.6;4.4
76045;PMS7003;64741;41.730;44.788;2023-09-19T21:41:31;5.4;4.8;4
76045;PMS7003;64741;41.730;44.788;2023-09-19T21:46:29;6;4.8;2.8
76045;PMS7003;64741;41.730;44.788;2023-09-19T21:51:33;6.6;5.2;4
76045;PMS7003;64741;41.730;44.788;2023-09-19T21:56:27;5.4;5;4
76045;PMS7003;64741;41.730;44.788;2023-09-19T22:01:05;6.4;5;3.8
76045;PMS7003;64741;41.730;44.788;2023-09-19T22:06:31;4.8;4.8;3.4
76045;PMS7003;64741;41.730;44.788;2023-09-19T22:11:30;6.4;5.2;4
76045;PMS7003;64741;41.730;44.788;2023-09-19T22:16:35;5.8;5.2;3.8
76045;PMS7003;64741;41.730;44.788;2023-09-19T22:21:31;6;4.6;3.2
76045;PMS7003;64741;41.730;44.788;2023-09-19T22:26:25;5.4;4.6;3.2
76045;PMS7003;64741;41.730;44.788;2023-09-19T22:31:31;5.2;5;3.2
76045;PMS7003;64741;41.730;44.788;2023-09-19T22:36:29;6.2;5.2;4
76045;PMS7003;64741;41.730;44.788;2023-09-19T22:41:35;5.6;5.2;3.6
76045;PMS7003;64741;41.730;44.788;2023-09-19T22:46:12;6.2;5.6;4.2
76045;PMS7003;64741;41.730;44.788;2023-09-19T22:51:25;5.4;5.2;4.2
76045;PMS7003;64741;41.730;44.788;2023-09-19T22:56:13;5.8;5.6;4.4
76045;PMS7003;64741;41.730;44.788;2023-09-19T23:01:10;6.6;6.2;4.2
76045;PMS7003;64741;41.730;44.788;2023-09-19T23:06:19;6.6;5.8;4
76045;PMS7003;64741;41.730;44.788;2023-09-19T23:11:31;6.4;5;3.8
76045;PMS7003;64741;41.730;44.788;2023-09-19T23:16:25;5;4.4;2.6
76045;PMS7003;64741;41.730;44.788;2023-09-19T23:21:35;5.4;4.4;3
76045;PMS7003;64741;41.730;44.788;2023-09-19T23:26:29;5.4;4.8;3.6
76045;PMS7003;64741;41.730;44.788;2023-09-19T23:31:35;6;4;3.2
76045;PMS7003;64741;41.730;44.788;2023-09-19T23:36:31;5;4.2;2.4
76045;PMS7003;64741;41.730;44.788;2023-09-19T23:41:23;6;4.8;3.2
76045;PMS7003;64741;41.730;44.788;2023-09-19T23:46:33;4.4;3.6;3
76045;PMS7003;64741;41.730;44.788;2023-09-19T23:51:29;4.2;3.4;2.2
76045;PMS7003;64741;41.730;44.788;2023-09-19T23:56:33;4.8;4;3.2
